createdAt,value
2017-10-17T00:00:55.845Z,22
2017-10-17T00:01:57.662Z,22.1
2017-10-17T00:02:59.825Z,22.1
2017-10-17T00:04:01.662Z,22.1
2017-10-17T00:05:03.503Z,22.1
2017-10-17T00:06:04.977Z,22
2017-10-17T00:07:06.455Z,22
2017-10-17T00:08:07.931Z,22.1
2017-10-17T00:09:09.412Z,22
2017-10-17T00:10:10.869Z,22
2017-10-17T00:11:12.321Z,22.1
2017-10-17T00:12:13.778Z,22
2017-10-17T00:13:15.602Z,22
2017-10-17T00:14:17.404Z,22
2017-10-17T00:15:19.224Z,22.1
2017-10-17T00:16:21.082Z,22.1
2017-10-17T00:17:22.899Z,22.1
2017-10-17T00:18:25.067Z,21.9
2017-10-17T00:19:26.889Z,22
2017-10-17T00:20:28.706Z,22
2017-10-17T00:21:30.873Z,22
2017-10-17T00:22:32.693Z,22
2017-10-17T00:23:34.169Z,22
2017-10-17T00:24:35.971Z,22
2017-10-17T00:25:37.422Z,21.9
2017-10-17T00:26:39.585Z,22
2017-10-17T00:27:41.751Z,22.1
2017-10-17T00:28:42.514Z,22
2017-10-17T00:29:44.335Z,22
2017-10-17T00:30:46.499Z,22
2017-10-17T00:31:48.669Z,21.9
2017-10-17T00:32:50.141Z,21.9
2017-10-17T00:33:51.960Z,22
2017-10-17T00:34:53.437Z,22
2017-10-17T00:35:55.255Z,22
2017-10-17T00:36:57.062Z,22
2017-10-17T00:37:58.880Z,22
2017-10-17T00:39:00.014Z,22
2017-10-17T00:40:02.171Z,22
2017-10-17T00:41:03.993Z,22
2017-10-17T00:42:05.814Z,22
2017-10-17T00:43:07.990Z,22
2017-10-17T00:44:10.149Z,22
2017-10-17T00:45:11.625Z,22
2017-10-17T00:46:13.443Z,22
2017-10-17T00:47:15.611Z,22
2017-10-17T00:48:17.772Z,22
2017-10-17T00:49:19.589Z,22
2017-10-17T00:50:21.407Z,22
2017-10-17T00:51:23.263Z,22
2017-10-17T00:52:25.063Z,21.9
2017-10-17T00:53:27.226Z,22
2017-10-17T00:54:29.043Z,22
2017-10-17T00:55:30.518Z,22
2017-10-17T00:56:32.336Z,22
2017-10-17T00:57:34.165Z,22
2017-10-17T00:58:36.334Z,22
2017-10-17T00:59:38.149Z,21.9
2017-10-17T01:00:40.328Z,22
2017-10-17T01:01:42.147Z,22
2017-10-17T01:02:43.966Z,22
2017-10-17T01:03:45.440Z,22
2017-10-17T01:04:47.604Z,22
2017-10-17T01:05:49.426Z,22
2017-10-17T01:06:51.262Z,22
2017-10-17T01:07:53.053Z,22
2017-10-17T01:08:54.197Z,22
2017-10-17T01:09:56.064Z,22
2017-10-17T01:10:57.519Z,22
2017-10-17T01:11:59.316Z,21.9
2017-10-17T01:13:01.132Z,22
2017-10-17T01:14:03.295Z,22
2017-10-17T01:15:04.748Z,21.9
2017-10-17T01:16:06.566Z,22
2017-10-17T01:17:08.385Z,22
2017-10-17T01:18:10.547Z,22
2017-10-17T01:19:12.344Z,21.9
2017-10-17T01:20:13.815Z,22
2017-10-17T01:21:14.945Z,21.9
2017-10-17T01:22:16.742Z,22
2017-10-17T01:23:18.907Z,22
2017-10-17T01:24:21.070Z,22
2017-10-17T01:25:22.889Z,21.9
2017-10-17T01:26:24.365Z,21.9
2017-10-17T01:27:26.181Z,22
2017-10-17T01:28:27.313Z,21.9
2017-10-17T01:29:29.131Z,21.9
2017-10-17T01:30:31.295Z,22
2017-10-17T01:31:33.458Z,21.9
2017-10-17T01:32:34.912Z,22
2017-10-17T01:33:36.386Z,21.9
2017-10-17T01:34:38.204Z,22
2017-10-17T01:35:40.090Z,22
2017-10-17T01:36:41.924Z,22
2017-10-17T01:37:43.732Z,21.9
2017-10-17T01:38:45.540Z,22
2017-10-17T01:39:47.026Z,21.9
2017-10-17T01:40:48.843Z,21.9
2017-10-17T01:41:50.324Z,21.9
2017-10-17T01:42:52.144Z,21.9
2017-10-17T01:43:54.306Z,22
2017-10-17T01:44:56.124Z,22
2017-10-17T01:45:57.574Z,21.9
2017-10-17T01:46:59.049Z,21.9
2017-10-17T01:48:00.844Z,21.9
2017-10-17T01:49:02.321Z,22
2017-10-17T01:50:04.138Z,21.9
2017-10-17T01:51:05.955Z,22
2017-10-17T01:52:08.134Z,21.9
2017-10-17T01:53:10.292Z,21.9
2017-10-17T01:54:12.469Z,21.9
2017-10-17T01:55:14.282Z,21.9
2017-10-17T01:56:16.099Z,21.9
2017-10-17T01:57:17.551Z,21.9
2017-10-17T01:58:19.714Z,21.9
2017-10-17T01:59:21.518Z,22
2017-10-17T02:00:23.331Z,22
2017-10-17T02:01:25.131Z,21.9
2017-10-17T02:02:26.607Z,21.9
2017-10-17T02:03:28.767Z,21.9
2017-10-17T02:04:29.901Z,21.9
2017-10-17T02:05:31.717Z,21.9
2017-10-17T02:06:33.513Z,21.9
2017-10-17T02:07:34.968Z,21.9
2017-10-17T02:08:36.788Z,21.9
2017-10-17T02:09:38.956Z,21.9
2017-10-17T02:10:40.062Z,21.8
2017-10-17T02:11:41.879Z,21.9
2017-10-17T02:12:43.354Z,21.9
2017-10-17T02:13:45.171Z,21.9
2017-10-17T02:14:47.334Z,21.9
2017-10-17T02:15:48.786Z,21.9
2017-10-17T02:16:50.240Z,21.9
2017-10-17T02:17:51.697Z,21.9
2017-10-17T02:18:53.178Z,21.9
2017-10-17T02:19:54.997Z,21.9
2017-10-17T02:20:56.110Z,21.9
2017-10-17T02:21:57.923Z,21.9
2017-10-17T02:23:00.084Z,21.9
2017-10-17T02:24:01.892Z,21.9
2017-10-17T02:25:03.346Z,22
2017-10-17T02:26:04.800Z,21.9
2017-10-17T02:27:06.616Z,21.9
2017-10-17T02:28:08.090Z,21.9
2017-10-17T02:29:09.909Z,21.9
2017-10-17T02:30:11.361Z,21.9
2017-10-17T02:31:12.812Z,21.9
2017-10-17T02:32:14.979Z,21.9
2017-10-17T02:33:16.795Z,22
2017-10-17T02:34:18.957Z,21.9
2017-10-17T02:35:20.064Z,21.9
2017-10-17T02:36:21.883Z,21.9
2017-10-17T02:37:24.055Z,21.9
2017-10-17T02:38:25.880Z,21.9
2017-10-17T02:39:28.042Z,21.9
2017-10-17T02:40:30.225Z,21.9
2017-10-17T02:41:32.390Z,21.9
2017-10-17T02:42:34.238Z,21.9
2017-10-17T02:43:36.043Z,21.9
2017-10-17T02:44:38.244Z,21.8
2017-10-17T02:45:40.043Z,21.8
2017-10-17T02:46:42.204Z,21.8
2017-10-17T02:47:44.023Z,21.9
2017-10-17T02:48:45.842Z,21.8
2017-10-17T02:49:48.004Z,21.8
2017-10-17T02:50:49.821Z,21.9
2017-10-17T02:51:51.618Z,21.9
2017-10-17T02:52:53.780Z,21.9
2017-10-17T02:53:55.599Z,21.8
2017-10-17T02:54:57.072Z,21.9
2017-10-17T02:55:58.201Z,21.9
2017-10-17T02:56:59.348Z,21.9
2017-10-17T02:58:01.512Z,22
2017-10-17T02:59:03.331Z,21.8
2017-10-17T03:00:05.148Z,21.9
2017-10-17T03:01:06.948Z,21.8
2017-10-17T03:02:08.783Z,21.9
2017-10-17T03:03:10.591Z,21.8
2017-10-17T03:04:12.754Z,21.9
2017-10-17T03:05:14.550Z,21.9
2017-10-17T03:06:16.346Z,21.8
2017-10-17T03:07:18.168Z,21.8
2017-10-17T03:08:20.327Z,21.9
2017-10-17T03:09:22.158Z,22
2017-10-17T03:10:24.315Z,21.8
2017-10-17T03:11:26.135Z,21.8
2017-10-17T03:12:28.293Z,21.9
2017-10-17T03:13:29.747Z,21.9
2017-10-17T03:14:31.566Z,21.8
2017-10-17T03:15:33.728Z,21.9
2017-10-17T03:16:34.837Z,21.9
2017-10-17T03:17:36.298Z,21.9
2017-10-17T03:18:38.089Z,21.9
2017-10-17T03:19:39.930Z,21.8
2017-10-17T03:20:41.752Z,21.9
2017-10-17T03:21:43.911Z,21.9
2017-10-17T03:22:45.734Z,21.8
2017-10-17T03:23:47.893Z,21.8
2017-10-17T03:24:49.368Z,21.9
2017-10-17T03:25:50.842Z,21.9
2017-10-17T03:26:52.660Z,21.9
2017-10-17T03:27:54.134Z,21.8
2017-10-17T03:28:56.294Z,21.8
2017-10-17T03:29:58.113Z,21.8
2017-10-17T03:30:59.907Z,21.9
2017-10-17T03:32:01.380Z,21.8
2017-10-17T03:33:03.201Z,21.9
2017-10-17T03:34:04.680Z,21.9
2017-10-17T03:35:06.129Z,21.8
2017-10-17T03:36:08.298Z,21.9
2017-10-17T03:37:10.092Z,21.8
2017-10-17T03:38:11.558Z,21.9
2017-10-17T03:39:13.376Z,21.9
2017-10-17T03:40:15.196Z,21.9
2017-10-17T03:41:16.303Z,21.9
2017-10-17T03:42:17.778Z,21.8
2017-10-17T03:43:19.254Z,21.9
2017-10-17T03:44:20.729Z,21.8
2017-10-17T03:45:22.546Z,21.8
2017-10-17T03:46:24.039Z,21.8
2017-10-17T03:47:25.851Z,21.9
2017-10-17T03:48:28.018Z,21.9
2017-10-17T03:49:29.836Z,21.8
2017-10-17T03:50:31.288Z,21.8
2017-10-17T03:51:33.452Z,21.9
2017-10-17T03:52:35.258Z,21.8
2017-10-17T03:53:36.728Z,21.8
2017-10-17T03:54:38.179Z,21.9
2017-10-17T03:55:40.345Z,21.9
2017-10-17T03:56:42.157Z,21.9
2017-10-17T03:57:43.977Z,21.9
2017-10-17T03:58:45.795Z,21.9
2017-10-17T03:59:47.248Z,21.8
2017-10-17T04:00:48.702Z,21.8
2017-10-17T04:01:50.868Z,21.8
2017-10-17T04:02:53.025Z,21.8
2017-10-17T04:03:55.186Z,21.7
2017-10-17T04:04:57.003Z,21.8
2017-10-17T04:05:58.822Z,21.8
2017-10-17T04:07:00.275Z,21.8
2017-10-17T04:08:02.438Z,21.9
2017-10-17T04:09:04.234Z,21.8
2017-10-17T04:10:06.422Z,21.8
2017-10-17T04:11:07.878Z,21.7
2017-10-17T04:12:10.040Z,21.8
2017-10-17T04:13:11.515Z,21.7
2017-10-17T04:14:12.967Z,21.8
2017-10-17T04:15:14.786Z,21.8
2017-10-17T04:16:16.613Z,21.9
2017-10-17T04:17:18.408Z,21.9
2017-10-17T04:18:19.862Z,21.8
2017-10-17T04:19:21.658Z,21.9
2017-10-17T04:20:23.130Z,21.8
2017-10-17T04:21:24.587Z,21.9
2017-10-17T04:22:26.400Z,21.9
2017-10-17T04:23:27.875Z,21.8
2017-10-17T04:24:30.037Z,21.9
2017-10-17T04:25:31.856Z,21.9
2017-10-17T04:26:34.018Z,21.9
2017-10-17T04:27:35.835Z,21.9
2017-10-17T04:28:37.633Z,21.9
2017-10-17T04:29:39.106Z,21.9
2017-10-17T04:30:40.924Z,21.9
2017-10-17T04:31:43.083Z,21.9
2017-10-17T04:32:44.534Z,21.9
2017-10-17T04:33:46.705Z,21.9
2017-10-17T04:34:48.171Z,21.9
2017-10-17T04:35:50.336Z,21.9
2017-10-17T04:36:52.206Z,21.9
2017-10-17T04:37:53.696Z,21.9
2017-10-17T04:38:55.173Z,22
2017-10-17T04:39:56.992Z,22
2017-10-17T04:40:59.158Z,22
2017-10-17T04:42:00.643Z,22
2017-10-17T04:43:02.462Z,22
2017-10-17T04:44:04.623Z,22.1
2017-10-17T04:45:06.438Z,22
2017-10-17T04:46:08.601Z,22.1
2017-10-17T04:47:10.764Z,21.9
2017-10-17T04:48:12.583Z,22
2017-10-17T04:49:14.401Z,22.1
2017-10-17T04:50:16.197Z,22
2017-10-17T04:51:17.648Z,22
2017-10-17T04:52:19.123Z,22.1
2017-10-17T04:53:21.285Z,22
2017-10-17T04:54:22.762Z,22.1
2017-10-17T04:55:24.572Z,22
2017-10-17T04:56:26.404Z,22.1
2017-10-17T04:57:28.570Z,22.1
2017-10-17T04:58:30.366Z,22.1
2017-10-17T04:59:32.528Z,22.1
2017-10-17T05:00:34.688Z,22.1
2017-10-17T05:01:36.854Z,22.1
2017-10-17T05:02:38.657Z,22.1
2017-10-17T05:03:40.818Z,22.1
2017-10-17T05:04:42.980Z,22
2017-10-17T05:05:44.088Z,22.1
2017-10-17T05:06:46.254Z,22.1
2017-10-17T05:07:48.087Z,22.1
2017-10-17T05:08:49.886Z,22.1
2017-10-17T05:09:52.051Z,22.1
2017-10-17T05:10:54.213Z,22.1
2017-10-17T05:11:55.664Z,22.1
2017-10-17T05:12:57.484Z,22.1
2017-10-17T05:13:58.952Z,22.1
2017-10-17T05:15:00.813Z,22.1
2017-10-17T05:16:01.921Z,22.2
2017-10-17T05:17:04.083Z,22.2
2017-10-17T05:18:06.246Z,22.1
2017-10-17T05:19:07.353Z,22.1
2017-10-17T05:20:08.809Z,22.2
2017-10-17T05:21:10.261Z,22.2
2017-10-17T05:22:11.733Z,22.1
2017-10-17T05:23:13.553Z,22.2
2017-10-17T05:24:15.377Z,22.2
2017-10-17T05:25:17.194Z,22.2
2017-10-17T05:26:19.014Z,22.2
2017-10-17T05:27:20.127Z,22.2
2017-10-17T05:28:21.597Z,22.2
2017-10-17T05:29:23.760Z,22.1
2017-10-17T05:30:24.894Z,22.1
2017-10-17T05:31:26.693Z,22.2
2017-10-17T05:32:28.856Z,22.2
2017-10-17T05:33:31.023Z,22.2
2017-10-17T05:34:32.845Z,22.1
2017-10-17T05:35:34.642Z,22.1
2017-10-17T05:36:36.463Z,22.1
2017-10-17T05:37:38.283Z,22.2
2017-10-17T05:38:39.391Z,22.2
2017-10-17T05:39:41.211Z,22.2
2017-10-17T05:40:42.685Z,22.2
2017-10-17T05:41:44.854Z,22.2
2017-10-17T05:42:46.655Z,22.3
2017-10-17T05:43:48.129Z,22.2
2017-10-17T05:44:50.297Z,22.2
2017-10-17T05:45:52.090Z,22.2
2017-10-17T05:46:54.254Z,22.1
2017-10-17T05:47:55.726Z,22.1
2017-10-17T05:48:57.891Z,22.2
2017-10-17T05:50:00.056Z,22.2
2017-10-17T05:51:02.242Z,22.2
2017-10-17T05:52:03.695Z,22.2
2017-10-17T05:53:05.512Z,22.2
2017-10-17T05:54:07.706Z,22.2
2017-10-17T05:55:09.523Z,22.3
2017-10-17T05:56:11.687Z,22.2
2017-10-17T05:57:12.803Z,22.2
2017-10-17T05:58:14.966Z,22.3
2017-10-17T05:59:16.790Z,22.2
2017-10-17T06:00:18.610Z,22.2
2017-10-17T06:01:20.431Z,22.2
2017-10-17T06:02:22.250Z,22.2
2017-10-17T06:03:24.067Z,22.2
2017-10-17T06:04:25.595Z,22.2
2017-10-17T06:05:27.560Z,22.2
2017-10-17T06:06:29.018Z,22.2
2017-10-17T06:07:30.835Z,22.3
2017-10-17T06:08:32.315Z,22.2
2017-10-17T06:09:33.772Z,22.2
2017-10-17T06:10:35.633Z,22.2
2017-10-17T06:11:37.854Z,22.2
2017-10-17T06:12:39.346Z,22.2
2017-10-17T06:13:41.511Z,22.3
2017-10-17T06:14:43.673Z,22.3
2017-10-17T06:15:45.492Z,22.2
2017-10-17T06:16:47.315Z,22.3
2017-10-17T06:17:48.429Z,22.2
2017-10-17T06:18:50.255Z,22.2
2017-10-17T06:19:51.703Z,22.2
2017-10-17T06:20:53.523Z,22.2
2017-10-17T06:21:55.340Z,22.2
2017-10-17T06:22:57.160Z,22.2
2017-10-17T06:23:58.963Z,22.3
2017-10-17T06:25:00.409Z,22.2
2017-10-17T06:26:02.585Z,22.2
2017-10-17T06:27:03.694Z,22.3
2017-10-17T06:28:04.826Z,22.3
2017-10-17T06:29:06.988Z,22.2
2017-10-17T06:30:09.168Z,22.3
2017-10-17T06:31:10.967Z,22.3
2017-10-17T06:32:12.765Z,22.2
2017-10-17T06:33:14.223Z,22.3
2017-10-17T06:34:16.391Z,22.2
2017-10-17T06:35:18.206Z,22.3
2017-10-17T06:36:19.328Z,22.2
2017-10-17T06:37:21.144Z,22.2
2017-10-17T06:38:22.598Z,22.3
2017-10-17T06:39:24.078Z,22.3
2017-10-17T06:40:25.997Z,22.3
2017-10-17T06:41:27.818Z,22.3
2017-10-17T06:42:29.980Z,22.2
2017-10-17T06:43:31.801Z,22.3
2017-10-17T06:44:33.992Z,22.3
2017-10-17T06:45:35.810Z,22.2
2017-10-17T06:46:37.975Z,22.2
2017-10-17T06:47:39.429Z,22.3
2017-10-17T06:48:40.893Z,22.3
2017-10-17T06:49:42.748Z,22.3
2017-10-17T06:50:44.578Z,22.2
2017-10-17T06:51:46.740Z,22.3
2017-10-17T06:52:48.905Z,22.3
2017-10-17T06:53:51.072Z,22.3
2017-10-17T06:54:52.887Z,22.3
2017-10-17T06:55:54.364Z,22.3
2017-10-17T06:56:56.184Z,22.3
2017-10-17T06:57:57.989Z,22.3
2017-10-17T06:58:59.802Z,22.3
2017-10-17T07:00:01.623Z,22.2
2017-10-17T07:01:03.076Z,22.3
2017-10-17T07:02:05.261Z,22.3
2017-10-17T07:03:07.426Z,22.3
2017-10-17T07:04:09.588Z,22.3
2017-10-17T07:05:10.701Z,22.3
2017-10-17T07:06:12.523Z,22.3
2017-10-17T07:07:14.685Z,22.3
2017-10-17T07:08:16.136Z,22.2
2017-10-17T07:09:17.591Z,22.3
2017-10-17T07:10:19.388Z,22.3
2017-10-17T07:11:21.190Z,22.3
2017-10-17T07:12:23.011Z,22.3
2017-10-17T07:13:24.462Z,22.4
2017-10-17T07:14:25.574Z,22.3
2017-10-17T07:15:27.393Z,22.2
2017-10-17T07:16:29.213Z,22.2
2017-10-17T07:17:31.017Z,22.4
2017-10-17T07:18:32.471Z,22.4
2017-10-17T07:19:33.946Z,22.3
2017-10-17T07:20:35.493Z,22.3
2017-10-17T07:21:37.310Z,22.4
2017-10-17T07:22:39.472Z,22.4
2017-10-17T07:23:40.946Z,22.3
2017-10-17T07:24:43.111Z,22.4
2017-10-17T07:25:44.933Z,22.4
2017-10-17T07:26:47.096Z,22.4
2017-10-17T07:27:48.912Z,22.3
2017-10-17T07:28:51.079Z,22.4
2017-10-17T07:29:53.245Z,22.4
2017-10-17T07:30:55.067Z,22.4
2017-10-17T07:31:56.866Z,22.4
2017-10-17T07:32:57.973Z,22.4
2017-10-17T07:33:59.779Z,22.4
2017-10-17T07:35:01.957Z,22.4
2017-10-17T07:36:04.122Z,22.4
2017-10-17T07:37:05.231Z,22.4
2017-10-17T07:38:06.692Z,22.4
2017-10-17T07:39:07.801Z,22.4
2017-10-17T07:40:09.620Z,22.3
2017-10-17T07:41:11.456Z,22.4
2017-10-17T07:42:12.915Z,22.3
2017-10-17T07:43:14.737Z,22.4
2017-10-17T07:44:16.558Z,22.3
2017-10-17T07:45:18.786Z,22.4
2017-10-17T07:46:20.581Z,22.4
2017-10-17T07:47:22.058Z,22.3
2017-10-17T07:48:23.877Z,22.4
2017-10-17T07:49:25.694Z,22.4
2017-10-17T07:50:27.150Z,22.4
2017-10-17T07:51:27.916Z,22.4
2017-10-17T07:52:29.735Z,22.4
2017-10-17T07:53:31.554Z,22.4
2017-10-17T07:54:33.372Z,22.5
2017-10-17T07:55:34.869Z,22.4
2017-10-17T07:56:36.688Z,22.4
2017-10-17T07:57:38.852Z,22.4
2017-10-17T07:58:40.672Z,22.4
2017-10-17T07:59:42.492Z,22.4
2017-10-17T08:00:43.972Z,22.4
2017-10-17T08:01:45.768Z,22.4
2017-10-17T08:02:47.935Z,22.5
2017-10-17T08:03:49.761Z,22.4
2017-10-17T08:04:51.574Z,22.4
2017-10-17T08:05:53.735Z,22.5
2017-10-17T08:06:55.901Z,22.5
2017-10-17T08:07:57.766Z,22.4
2017-10-17T08:08:59.951Z,22.4
2017-10-17T08:10:01.908Z,22.4
2017-10-17T08:11:03.359Z,22.5
2017-10-17T08:12:05.520Z,22.5
2017-10-17T08:13:06.974Z,22.5
2017-10-17T08:14:08.107Z,22.5
2017-10-17T08:15:10.272Z,22.4
2017-10-17T08:16:11.724Z,22.5
2017-10-17T08:17:13.177Z,22.5
2017-10-17T08:18:14.996Z,22.5
2017-10-17T08:19:17.161Z,22.5
2017-10-17T08:20:19.325Z,22.5
2017-10-17T08:21:21.143Z,22.5
2017-10-17T08:22:22.963Z,22.5
2017-10-17T08:23:24.782Z,22.5
2017-10-17T08:24:26.947Z,22.5
2017-10-17T08:25:29.113Z,22.5
2017-10-17T08:26:30.566Z,22.5
2017-10-17T08:27:32.732Z,22.6
2017-10-17T08:28:34.554Z,22.5
2017-10-17T08:29:36.374Z,22.5
2017-10-17T08:30:38.175Z,22.5
2017-10-17T08:31:40.335Z,22.5
2017-10-17T08:32:42.499Z,22.5
2017-10-17T08:33:44.661Z,22.5
2017-10-17T08:34:46.480Z,22.6
2017-10-17T08:35:48.303Z,22.6
2017-10-17T08:36:49.776Z,22.6
2017-10-17T08:37:51.940Z,22.6
2017-10-17T08:38:54.102Z,22.6
2017-10-17T08:39:55.920Z,22.6
2017-10-17T08:40:57.800Z,22.6
2017-10-17T08:41:59.966Z,22.6
2017-10-17T08:43:02.142Z,22.6
2017-10-17T08:44:03.928Z,22.7
2017-10-17T08:45:05.749Z,22.5
2017-10-17T08:46:07.569Z,22.6
2017-10-17T08:47:09.041Z,22.6
2017-10-17T08:48:11.209Z,22.6
2017-10-17T08:49:13.378Z,22.6
2017-10-17T08:50:14.521Z,22.6
2017-10-17T08:51:16.357Z,22.6
2017-10-17T08:52:18.519Z,22.7
2017-10-17T08:53:20.051Z,22.7
2017-10-17T08:54:22.212Z,22.6
2017-10-17T08:55:24.377Z,22.6
2017-10-17T08:56:26.552Z,22.7
2017-10-17T08:57:28.378Z,22.7
2017-10-17T08:58:29.855Z,22.7
2017-10-17T08:59:31.348Z,22.7
2017-10-17T09:00:32.824Z,22.7
2017-10-17T09:01:34.299Z,22.7
2017-10-17T09:02:36.481Z,22.6
2017-10-17T09:03:37.941Z,22.7
2017-10-17T09:04:39.420Z,22.7
2017-10-17T09:05:40.873Z,22.7
2017-10-17T09:06:42.719Z,22.7
2017-10-17T09:07:44.522Z,22.6
2017-10-17T09:08:46.328Z,22.6
2017-10-17T09:09:48.145Z,22.7
2017-10-17T09:10:49.964Z,22.6
2017-10-17T09:11:51.431Z,22.7
2017-10-17T09:12:53.590Z,22.7
2017-10-17T09:13:55.046Z,22.6
2017-10-17T09:14:56.845Z,22.8
2017-10-17T09:15:58.661Z,22.6
2017-10-17T09:17:00.463Z,22.7
2017-10-17T09:18:02.285Z,22.7
2017-10-17T09:19:04.455Z,22.7
2017-10-17T09:20:06.620Z,22.8
2017-10-17T09:21:08.100Z,22.8
2017-10-17T09:22:10.315Z,22.6
2017-10-17T09:23:12.136Z,22.7
2017-10-17T09:24:13.602Z,22.7
2017-10-17T09:25:15.422Z,22.7
2017-10-17T09:26:17.587Z,22.7
2017-10-17T09:27:19.041Z,22.7
2017-10-17T09:28:20.840Z,22.7
2017-10-17T09:29:22.318Z,22.7
2017-10-17T09:30:24.487Z,22.7
2017-10-17T09:31:26.651Z,22.8
2017-10-17T09:32:28.109Z,22.8
2017-10-17T09:33:29.927Z,22.7
2017-10-17T09:34:31.805Z,22.8
2017-10-17T09:35:33.294Z,22.7
2017-10-17T09:36:35.095Z,22.7
2017-10-17T09:37:36.905Z,22.7
2017-10-17T09:38:38.726Z,22.8
2017-10-17T09:39:40.548Z,22.7
2017-10-17T09:40:42.718Z,22.7
2017-10-17T09:41:44.562Z,22.8
2017-10-17T09:42:46.022Z,22.6
2017-10-17T09:43:47.841Z,22.7
2017-10-17T09:44:50.009Z,22.8
2017-10-17T09:45:52.173Z,22.8
2017-10-17T09:46:53.974Z,22.7
2017-10-17T09:47:55.796Z,22.7
2017-10-17T09:48:57.275Z,22.6
2017-10-17T09:49:59.450Z,22.8
2017-10-17T09:51:01.646Z,22.7
2017-10-17T09:52:03.465Z,22.7
2017-10-17T09:53:04.610Z,22.6
2017-10-17T09:54:06.431Z,22.8
2017-10-17T09:55:08.597Z,22.7
2017-10-17T09:56:10.057Z,22.8
2017-10-17T09:57:11.535Z,22.8
2017-10-17T09:58:13.065Z,22.9
2017-10-17T09:59:14.536Z,22.8
2017-10-17T10:00:16.023Z,22.8
2017-10-17T10:01:17.480Z,22.8
2017-10-17T10:02:19.418Z,22.8
2017-10-17T10:03:21.582Z,22.9
2017-10-17T10:04:23.412Z,22.8
2017-10-17T10:05:24.881Z,22.8
2017-10-17T10:06:27.046Z,22.8
2017-10-17T10:07:28.868Z,22.8
2017-10-17T10:08:30.674Z,22.8
2017-10-17T10:09:32.473Z,22.9
2017-10-17T10:10:34.637Z,22.8
2017-10-17T10:11:36.112Z,22.8
2017-10-17T10:12:38.298Z,22.8
2017-10-17T10:13:39.067Z,22.9
2017-10-17T10:14:41.234Z,22.8
2017-10-17T10:15:42.687Z,22.9
2017-10-17T10:16:44.850Z,22.8
2017-10-17T10:17:46.304Z,22.8
2017-10-17T10:18:47.760Z,22.9
2017-10-17T10:19:49.245Z,22.9
2017-10-17T10:20:51.067Z,22.9
2017-10-17T10:21:52.890Z,22.9
2017-10-17T10:22:54.711Z,22.8
2017-10-17T10:23:56.166Z,22.8
2017-10-17T10:24:58.331Z,22.9
2017-10-17T10:26:00.495Z,22.9
2017-10-17T10:27:02.667Z,22.9
2017-10-17T10:28:04.831Z,22.8
2017-10-17T10:29:06.282Z,22.9
2017-10-17T10:30:07.801Z,22.9
2017-10-17T10:31:09.321Z,22.9
2017-10-17T10:32:11.515Z,22.8
2017-10-17T10:33:13.311Z,22.9
2017-10-17T10:34:14.443Z,22.9
2017-10-17T10:35:16.613Z,22.9
2017-10-17T10:36:18.437Z,22.8
2017-10-17T10:37:20.373Z,22.9
2017-10-17T10:38:22.538Z,22.9
2017-10-17T10:39:24.702Z,22.9
2017-10-17T10:40:26.910Z,23
2017-10-17T10:41:28.707Z,22.9
2017-10-17T10:42:30.185Z,22.9
2017-10-17T10:43:32.004Z,23
2017-10-17T10:44:33.474Z,22.9
2017-10-17T10:45:35.642Z,23
2017-10-17T10:46:37.812Z,22.9
2017-10-17T10:47:39.979Z,22.9
2017-10-17T10:48:41.798Z,22.9
2017-10-17T10:49:43.971Z,22.9
2017-10-17T10:50:46.129Z,22.9
2017-10-17T10:51:47.948Z,22.9
2017-10-17T10:52:48.715Z,23
2017-10-17T10:53:50.192Z,23
2017-10-17T10:54:52.004Z,23
2017-10-17T10:55:52.777Z,23
2017-10-17T10:56:54.946Z,22.9
2017-10-17T10:57:56.791Z,22.9
2017-10-17T10:58:58.959Z,23
2017-10-17T11:00:00.783Z,22.9
2017-10-17T11:01:02.963Z,23
2017-10-17T11:02:04.416Z,23
2017-10-17T11:03:06.584Z,23
2017-10-17T11:04:08.098Z,23
2017-10-17T11:05:10.265Z,23
2017-10-17T11:06:11.751Z,23
2017-10-17T11:07:13.916Z,23
2017-10-17T11:08:15.753Z,23.1
2017-10-17T11:09:16.507Z,23
2017-10-17T11:10:17.986Z,23
2017-10-17T11:11:20.155Z,23
2017-10-17T11:12:21.973Z,23
2017-10-17T11:13:24.144Z,23
2017-10-17T11:14:25.623Z,23
2017-10-17T11:15:27.105Z,23
2017-10-17T11:16:29.276Z,22.9
2017-10-17T11:17:31.093Z,23
2017-10-17T11:18:32.919Z,23
2017-10-17T11:19:35.096Z,23.1
2017-10-17T11:20:37.261Z,23
2017-10-17T11:21:39.103Z,23.1
2017-10-17T11:22:40.922Z,23
2017-10-17T11:23:43.128Z,23.1
2017-10-17T11:24:45.359Z,23
2017-10-17T11:25:47.183Z,23
2017-10-17T11:26:49.002Z,23
2017-10-17T11:27:50.464Z,23
2017-10-17T11:28:52.318Z,23
2017-10-17T11:29:54.137Z,23.1
2017-10-17T11:30:55.939Z,23
2017-10-17T11:31:57.051Z,23
2017-10-17T11:32:58.160Z,23
2017-10-17T11:33:59.990Z,23
2017-10-17T11:35:01.807Z,23.1
2017-10-17T11:36:03.628Z,23.1
2017-10-17T11:37:05.793Z,23.1
2017-10-17T11:38:07.631Z,23.1
2017-10-17T11:39:09.484Z,23.2
2017-10-17T11:40:11.409Z,23.1
2017-10-17T11:41:12.634Z,23.1
2017-10-17T11:42:14.458Z,23.1
2017-10-17T11:43:16.258Z,23.1
2017-10-17T11:44:18.421Z,23.1
2017-10-17T11:45:20.587Z,23
2017-10-17T11:46:21.701Z,23.1
2017-10-17T11:47:23.916Z,23.1
2017-10-17T11:48:25.730Z,23.1
2017-10-17T11:49:27.521Z,23.1
2017-10-17T11:50:29.337Z,23.1
2017-10-17T11:51:31.155Z,23.1
2017-10-17T11:52:32.645Z,23.1
2017-10-17T11:53:34.816Z,23.2
2017-10-17T11:54:36.611Z,23.1
2017-10-17T11:55:38.448Z,23.1
2017-10-17T11:56:40.633Z,23.2
2017-10-17T11:57:42.850Z,23.1
2017-10-17T11:58:43.965Z,23.2
2017-10-17T11:59:45.793Z,23.1
2017-10-17T12:00:47.956Z,23.2
2017-10-17T12:01:50.118Z,23.2
2017-10-17T12:02:52.280Z,23.1
2017-10-17T12:03:54.104Z,23.1
2017-10-17T12:04:56.267Z,23.1
2017-10-17T12:05:58.087Z,23.1
2017-10-17T12:06:59.546Z,23.2
2017-10-17T12:08:01.367Z,23.2
2017-10-17T12:09:03.185Z,23.2
2017-10-17T12:10:05.349Z,23.2
2017-10-17T12:11:07.148Z,23.2
2017-10-17T12:12:08.974Z,23.2
2017-10-17T12:13:10.450Z,23.2
2017-10-17T12:14:12.270Z,23.1
2017-10-17T12:15:14.433Z,23.2
2017-10-17T12:16:16.598Z,23.1
2017-10-17T12:17:18.076Z,23.2
2017-10-17T12:18:20.239Z,23.2
2017-10-17T12:19:22.402Z,23.2
2017-10-17T12:20:23.858Z,23.2
2017-10-17T12:21:25.679Z,23.2
2017-10-17T12:22:27.842Z,23.2
2017-10-17T12:23:29.664Z,23.2
2017-10-17T12:24:31.827Z,23.2
2017-10-17T12:25:33.302Z,23.2
2017-10-17T12:26:35.123Z,23.2
2017-10-17T12:27:36.941Z,23.2
2017-10-17T12:28:38.762Z,23.3
2017-10-17T12:29:40.925Z,23.2
2017-10-17T12:30:43.093Z,23.2
2017-10-17T12:31:45.255Z,23.2
2017-10-17T12:32:47.120Z,23.1
2017-10-17T12:33:48.593Z,23.2
2017-10-17T12:34:50.073Z,23.2
2017-10-17T12:35:52.238Z,23.2
2017-10-17T12:36:54.063Z,23.2
2017-10-17T12:37:55.538Z,23.3
2017-10-17T12:38:57.019Z,23.2
2017-10-17T12:39:58.812Z,23.2
2017-10-17T12:41:00.280Z,23.3
2017-10-17T12:42:02.086Z,23.2
2017-10-17T12:43:04.259Z,23.2
2017-10-17T12:44:05.743Z,23.3
2017-10-17T12:45:07.561Z,23.3
2017-10-17T12:46:09.719Z,23.2
2017-10-17T12:47:11.883Z,23.3
2017-10-17T12:48:13.360Z,23.2
2017-10-17T12:49:14.861Z,23.2
2017-10-17T12:50:16.661Z,23.3
2017-10-17T12:51:18.824Z,23.2
2017-10-17T12:52:20.299Z,23.3
2017-10-17T12:53:22.463Z,23.2
2017-10-17T12:54:24.271Z,23.3
2017-10-17T12:55:25.376Z,23.2
2017-10-17T12:56:27.194Z,23.3
2017-10-17T12:57:28.652Z,23.3
2017-10-17T12:58:30.816Z,23.3
2017-10-17T12:59:32.291Z,23.3
2017-10-17T13:00:34.461Z,23.3
2017-10-17T13:01:36.281Z,23.2
2017-10-17T13:02:38.099Z,23.2
2017-10-17T13:03:39.213Z,23.3
2017-10-17T13:04:40.669Z,23.3
2017-10-17T13:05:42.833Z,23.2
2017-10-17T13:06:45.001Z,23.3
2017-10-17T13:07:46.871Z,23.3
2017-10-17T13:08:48.326Z,23.3
2017-10-17T13:09:50.149Z,23.3
2017-10-17T13:10:51.630Z,23.3
2017-10-17T13:11:53.799Z,23.3
2017-10-17T13:12:55.630Z,23.2
2017-10-17T13:13:57.107Z,23.3
2017-10-17T13:14:58.563Z,23.2
2017-10-17T13:15:59.700Z,23.3
2017-10-17T13:17:01.521Z,23.3
2017-10-17T13:18:03.325Z,23.3
2017-10-17T13:19:04.433Z,23.3
2017-10-17T13:20:05.544Z,23.3
2017-10-17T13:21:07.019Z,23.2
2017-10-17T13:22:08.852Z,23.3
2017-10-17T13:23:10.330Z,23.3
2017-10-17T13:24:12.509Z,23.3
2017-10-17T13:25:14.330Z,23.3
2017-10-17T13:26:16.494Z,23.3
2017-10-17T13:27:18.658Z,23.4
2017-10-17T13:28:20.822Z,23.4
2017-10-17T13:29:22.300Z,23.3
2017-10-17T13:30:24.465Z,23.3
2017-10-17T13:31:25.917Z,23.2
2017-10-17T13:32:27.791Z,23.2
2017-10-17T13:33:28.899Z,23.3
2017-10-17T13:34:31.062Z,23.3
2017-10-17T13:35:33.243Z,23.3
2017-10-17T13:36:35.068Z,23.3
2017-10-17T13:37:36.865Z,23.4
2017-10-17T13:38:38.700Z,23.4
2017-10-17T13:39:40.160Z,23.3
2017-10-17T13:40:41.636Z,23.4
2017-10-17T13:41:43.455Z,23.3
2017-10-17T13:42:45.425Z,23.4
2017-10-17T13:43:46.539Z,23.3
2017-10-17T13:44:48.366Z,23.4
2017-10-17T13:45:49.842Z,23.4
2017-10-17T13:46:51.655Z,23.3
2017-10-17T13:47:53.820Z,23.4
2017-10-17T13:48:55.645Z,23.3
2017-10-17T13:49:56.786Z,23.4
2017-10-17T13:50:58.946Z,23.3